Walkers Mill, Texas
Current Conditions -  °F | °C
As of 2:15 PM on Thursday 23 Oct 2014 (Local Time) from KASL Reporting Station
Clear Clear  
Wind Chill: 72°   Ceiling: Unl
Heat Index: 72°   Visibility: 10mi
Dew Point: 50°   Wind: 5mph
Humidity: 46%   Direction: 40°NE
Pressure: 30.15"   Gusts: NA
Location:  32.4986°N, 94.513°W
Report Text: KASL 231915Z AUTO 04004KT 10SM CLR 22/10 A3015 RMK AO1 T02200098
Loading
Personal Weather Stations






























Interactive Weather Map
Tropical Storm Tracking
New forecast layout! Learn more

10-Day Weather Forecast

Advertisements
Track Severe Weather on mobile